Time;durP1;ratioP1;P1;durP2;ratioP2;P2;SDS_P1;SDS_P2;PMS_P1;PMS_P2;Temp;Humidity;BMP_temperature;BMP_pressure;BME280_temperature;BME280_humidity;BME280_pressure;Samples;Min_cycle;Max_cycle;Signal;HPM_P1;HPM_P2
2022/01/02 00:00:37;;;;;;;;;29.50;28.75;;;;;10.94;78.92;101126.34;5058134;28;45471;-67
2022/01/02 00:03:04;;;;;;;;;32.00;28.75;;;;;10.95;78.88;101118.41;5057054;28;45441;-59
2022/01/02 00:05:34;;;;;;;;;28.00;24.75;;;;;10.99;79.19;101118.31;5057106;28;45580;-59
2022/01/02 00:08:03;;;;;;;;;30.50;28.00;;;;;10.93;79.20;101109.72;5056450;28;45262;-63
2022/01/02 00:10:32;;;;;;;;;29.75;27.00;;;;;10.96;78.87;101122.75;5057235;28;45378;-57
2022/01/02 00:13:01;;;;;;;;;34.50;28.25;;;;;10.96;78.54;101120.13;5057267;28;45307;-63
2022/01/02 00:15:27;;;;;;;;;25.00;25.00;;;;;10.99;78.30;101111.25;5058381;28;45573;-58
2022/01/02 00:17:55;;;;;;;;;25.50;24.75;;;;;11.00;78.58;101112.13;5040743;28;47284;-63
2022/01/02 00:20:32;;;;;;;;;30.75;27.50;;;;;11.02;78.27;101112.94;5058682;28;45323;-63
2022/01/02 00:23:05;;;;;;;;;29.25;28.25;;;;;10.97;78.60;101105.19;5040599;28;45419;-68
2022/01/02 00:25:35;;;;;;;;;25.50;25.25;;;;;11.00;78.67;101112.97;5057592;28;45499;-69
2022/01/02 00:28:01;;;;;;;;;26.75;22.00;;;;;10.96;78.20;101112.25;5057306;28;46170;-70
2022/01/02 00:30:27;;;;;;;;;26.25;24.75;;;;;10.93;78.46;101119.34;5056780;28;45359;-61
2022/01/02 00:32:52;;;;;;;;;28.00;27.00;;;;;10.95;78.16;101130.69;5057581;28;45501;-65
2022/01/02 00:35:18;;;;;;;;;26.75;25.25;;;;;10.89;78.52;101113.34;5057598;28;45251;-63
2022/01/02 00:37:44;;;;;;;;;26.75;24.50;;;;;10.92;78.20;101115.88;5056988;28;45359;-60
2022/01/02 00:40:10;;;;;;;;;34.75;30.00;;;;;10.80;78.99;101100.50;5057476;28;45452;-71
2022/01/02 00:42:41;;;;;;;;;35.50;32.00;;;;;10.98;78.84;101113.97;5039684;28;45416;-70
2022/01/02 00:45:23;;;;;;;;;30.00;24.25;;;;;10.97;78.04;101107.81;5058119;28;45443;-69
2022/01/02 00:47:56;;;;;;;;;34.25;30.25;;;;;10.99;78.22;101105.16;5057137;28;45572;-68
2022/01/02 00:50:30;;;;;;;;;29.75;28.00;;;;;11.00;78.30;101106.88;5057163;28;45367;-70
2022/01/02 00:52:58;;;;;;;;;31.75;28.75;;;;;11.00;78.07;101118.25;5058369;28;45411;-64
2022/01/02 00:55:25;;;;;;;;;26.00;23.25;;;;;11.00;78.52;101122.66;5039780;28;45540;-61
2022/01/02 00:58:02;;;;;;;;;28.25;25.25;;;;;11.00;78.20;101118.25;5059422;28;46069;-64
2022/01/02 01:00:29;;;;;;;;;26.75;23.75;;;;;11.01;78.94;101127.03;5058655;28;45193;-60
2022/01/02 01:02:57;;;;;;;;;30.50;26.75;;;;;10.98;78.53;101103.44;5059236;28;45430;-63
2022/01/02 01:05:24;;;;;;;;;29.25;26.50;;;;;11.04;78.11;101097.97;5064791;28;45631;-66
2022/01/02 01:07:52;;;;;;;;;27.75;27.25;;;;;11.07;78.54;101082.06;5060065;28;45438;-58
2022/01/02 01:10:20;;;;;;;;;31.50;30.50;;;;;11.08;78.35;101063.56;5056473;28;45308;-71
2022/01/02 01:12:53;;;;;;;;;28.75;28.00;;;;;11.08;78.01;101089.88;5058477;28;45310;-67
2022/01/02 01:15:21;;;;;;;;;28.50;25.75;;;;;11.08;77.98;101083.78;5060552;28;45685;-64
2022/01/02 01:17:47;;;;;;;;;31.00;28.50;;;;;11.05;77.63;101061.03;5059791;28;47093;-65
2022/01/02 01:20:13;;;;;;;;;25.25;24.25;;;;;11.00;77.80;101046.31;5059477;28;45377;-62
2022/01/02 01:22:41;;;;;;;;;27.50;26.00;;;;;11.03;77.79;101043.59;5060402;28;45306;-65
2022/01/02 01:25:12;;;;;;;;;29.00;25.50;;;;;11.03;77.49;101036.53;5059451;28;45252;-61
2022/01/02 01:27:38;;;;;;;;;33.50;25.50;;;;;11.04;78.09;101037.41;5059104;28;47240;-66
2022/01/02 01:30:04;;;;;;;;;25.00;24.50;;;;;11.02;77.66;101036.59;5059468;28;45384;-66
2022/01/02 01:32:29;;;;;;;;;23.00;20.25;;;;;11.00;78.08;101041.06;5041814;28;45267;-59
2022/01/02 01:34:55;;;;;;;;;19.25;19.25;;;;;10.95;77.51;101049.97;5060007;28;45511;-70
2022/01/02 01:37:20;;;;;;;;;26.25;24.00;;;;;10.92;77.61;101060.63;5060068;28;47346;-65
2022/01/02 01:39:45;;;;;;;;;24.50;17.50;;;;;10.90;78.00;101065.06;5059669;28;45410;-63
2022/01/02 01:42:12;;;;;;;;;26.25;23.50;;;;;10.88;78.38;101052.84;5059430;28;45350;-67
2022/01/02 01:47:26;;;;;;;;;31.00;27.00;;;;;10.87;78.15;101043.25;5030745;28;45858;-64
2022/01/02 01:49:52;;;;;;;;;28.50;25.00;;;;;10.90;78.03;101037.88;5061497;28;45410;-65
2022/01/02 01:52:17;;;;;;;;;31.25;26.50;;;;;10.88;77.97;101048.47;5059664;28;45425;-68
2022/01/02 01:54:42;;;;;;;;;26.50;25.25;;;;;10.89;78.01;101049.31;5060356;28;45316;-61
2022/01/02 01:57:08;;;;;;;;;27.00;24.25;;;;;10.89;78.00;101026.50;5059320;28;45355;-63
2022/01/02 01:59:33;;;;;;;;;28.25;27.50;;;;;10.84;78.06;101010.00;5065442;28;45370;-58
2022/01/02 02:01:59;;;;;;;;;24.75;24.25;;;;;10.91;78.27;101022.03;5063288;28;45287;-64
2022/01/02 02:04:24;;;;;;;;;26.25;24.25;;;;;10.92;78.58;101015.88;5060636;28;45600;-61
2022/01/02 02:06:52;;;;;;;;;29.00;25.50;;;;;10.94;77.96;101021.06;5059206;28;46031;-60
2022/01/02 02:09:19;;;;;;;;;32.00;27.25;;;;;10.88;77.87;101006.34;5041693;28;45316;-62
2022/01/02 02:11:46;;;;;;;;;23.50;22.25;;;;;10.91;78.22;101015.91;5060362;28;45391;-63
2022/01/02 02:14:13;;;;;;;;;26.75;24.50;;;;;10.91;78.30;101018.53;5060355;28;45538;-69
2022/01/02 02:16:39;;;;;;;;;27.75;26.25;;;;;10.89;78.16;101007.19;5059173;28;45424;-67
2022/01/02 02:19:05;;;;;;;;;24.25;24.25;;;;;10.90;78.23;101001.91;5042245;28;45265;-63
2022/01/02 02:21:36;;;;;;;;;20.50;20.50;;;;;10.88;78.18;101006.34;5064766;28;45323;-62
2022/01/02 02:24:05;;;;;;;;;22.25;21.00;;;;;10.91;77.87;100994.84;5058855;28;45297;-59
2022/01/02 02:26:34;;;;;;;;;26.50;23.25;;;;;10.91;78.03;100995.72;5058331;28;45277;-65
2022/01/02 02:29:02;;;;;;;;;27.25;22.75;;;;;10.92;77.84;100979.03;5058441;28;45439;-65
2022/01/02 02:31:27;;;;;;;;;27.75;21.50;;;;;10.91;77.93;100974.66;5059027;28;45894;-65
2022/01/02 02:33:53;;;;;;;;;29.50;24.75;;;;;10.91;77.98;100982.56;5059000;28;45743;-62
2022/01/02 02:36:18;;;;;;;;;23.00;19.25;;;;;10.92;77.81;100981.66;5059731;28;45452;-66
2022/01/02 02:38:43;;;;;;;;;23.00;21.00;;;;;10.90;77.44;100977.34;5065337;28;45404;-67
2022/01/02 02:41:09;;;;;;;;;22.50;20.00;;;;;10.91;77.81;100973.78;5059836;28;45356;-65
2022/01/02 02:43:44;;;;;;;;;22.75;20.00;;;;;10.88;77.48;100969.50;5058465;28;45518;-66
2022/01/02 02:54:08;;;;;;;;;20.00;19.00;;;;;10.85;77.72;100945.94;5059487;28;45273;-70
2022/01/02 02:56:43;;;;;;;;;21.25;20.25;;;;;10.84;77.33;100936.31;5059528;28;45364;-59
2022/01/02 02:59:11;;;;;;;;;19.50;19.50;;;;;10.87;77.32;100943.22;5058698;28;45339;-67
2022/01/02 03:01:37;;;;;;;;;20.75;19.00;;;;;10.86;77.45;100933.63;5060293;28;45347;-69
2022/01/02 03:04:03;;;;;;;;;25.25;23.50;;;;;10.86;77.58;100937.13;5042622;28;45338;-70
2022/01/02 03:06:28;;;;;;;;;22.50;19.75;;;;;10.84;77.25;100932.81;5058073;28;45410;-68
2022/01/02 03:08:54;;;;;;;;;20.50;17.00;;;;;10.80;77.02;100932.94;5058023;28;45388;-68
2022/01/02 03:11:21;;;;;;;;;18.00;17.50;;;;;10.80;76.89;100942.59;5058393;28;46007;-69
2022/01/02 03:13:51;;;;;;;;;20.00;18.25;;;;;10.79;77.08;100938.25;5058070;28;45382;-70
2022/01/02 03:16:17;;;;;;;;;15.50;15.50;;;;;10.79;77.39;100935.63;5057851;28;46107;-69
2022/01/02 03:18:42;;;;;;;;;21.50;19.75;;;;;10.74;77.02;100927.88;5058187;28;45294;-68
2022/01/02 03:21:09;;;;;;;;;22.25;20.00;;;;;10.79;77.03;100919.84;5040648;28;45343;-71
2022/01/02 03:23:35;;;;;;;;;19.25;17.25;;;;;10.81;77.67;100903.06;5060240;28;45835;-69
2022/01/02 03:26:01;;;;;;;;;19.00;18.25;;;;;10.82;77.36;100894.25;5058453;28;45346;-70
2022/01/02 03:28:26;;;;;;;;;19.50;19.50;;;;;10.82;76.87;100909.19;5058282;28;45229;-70
2022/01/02 03:30:52;;;;;;;;;22.25;17.75;;;;;10.82;77.50;100930.25;5058427;28;45370;-70
2022/01/02 03:33:17;;;;;;;;;22.75;21.00;;;;;10.81;77.06;100954.84;5058426;28;45379;-59
2022/01/02 03:35:43;;;;;;;;;17.25;16.50;;;;;10.82;77.50;100940.78;5058156;28;45318;-70
2022/01/02 03:38:09;;;;;;;;;19.50;18.75;;;;;10.85;77.05;100948.56;5057469;28;45330;-69
2022/01/02 03:40:35;;;;;;;;;20.50;18.00;;;;;10.79;76.88;100918.06;5058390;28;45565;-70
2022/01/02 03:43:01;;;;;;;;;21.00;20.50;;;;;10.86;77.13;100939.75;5058786;28;45607;-70
2022/01/02 03:45:26;;;;;;;;;18.50;18.00;;;;;10.87;76.71;100940.59;5057624;28;45469;-71
2022/01/02 03:47:52;;;;;;;;;25.25;21.00;;;;;10.89;77.07;100936.16;5057185;28;45343;-69
2022/01/02 03:50:17;;;;;;;;;18.50;18.25;;;;;10.85;76.71;100927.50;5039435;28;45264;-67
2022/01/02 03:52:43;;;;;;;;;20.25;19.50;;;;;10.88;77.09;100916.00;5057291;28;45261;-63
2022/01/02 03:55:09;;;;;;;;;19.75;16.75;;;;;10.95;76.60;100915.75;5056675;28;45989;-59
2022/01/02 03:57:37;;;;;;;;;19.50;18.75;;;;;10.98;76.78;100909.50;5058071;28;45214;-64
2022/01/02 04:00:09;;;;;;;;;20.75;18.25;;;;;10.95;76.59;100904.34;5057554;28;45243;-66
2022/01/02 04:02:37;;;;;;;;;21.75;16.50;;;;;11.03;76.55;100912.81;5058112;28;45398;-69
2022/01/02 04:05:07;;;;;;;;;20.00;18.00;;;;;11.04;76.77;100908.41;5059259;28;46248;-69
2022/01/02 04:07:32;;;;;;;;;20.50;16.25;;;;;11.04;76.23;100905.78;5060472;28;45372;-66
2022/01/02 04:10:01;;;;;;;;;20.50;18.00;;;;;11.06;76.19;100906.59;5059820;28;45371;-66
2022/01/02 04:12:27;;;;;;;;;21.75;16.75;;;;;11.08;76.11;100907.38;5058090;28;45473;-63
2022/01/02 04:14:52;;;;;;;;;17.25;15.00;;;;;11.07;76.08;100903.03;5057410;28;45280;-65
2022/01/02 04:17:17;;;;;;;;;19.00;15.75;;;;;11.08;76.37;100899.50;5058514;28;45403;-67
2022/01/02 04:19:42;;;;;;;;;19.25;15.50;;;;;11.10;76.50;100900.28;5058212;28;45422;-58
2022/01/02 04:22:08;;;;;;;;;18.25;18.00;;;;;11.10;75.70;100905.56;5057194;28;45214;-59
2022/01/02 04:24:33;;;;;;;;;22.75;20.75;;;;;11.08;76.00;100881.91;5056764;28;45344;-60
2022/01/02 04:26:59;;;;;;;;;19.00;14.75;;;;;11.10;75.82;100869.53;5056480;28;45355;-61
2022/01/02 04:29:24;;;;;;;;;19.00;16.50;;;;;11.10;75.91;100877.44;5057404;28;45335;-66
2022/01/02 04:31:49;;;;;;;;;19.25;15.00;;;;;11.06;76.10;100870.56;5057574;28;45327;-65
2022/01/02 04:34:15;;;;;;;;;18.75;16.00;;;;;11.05;76.37;100882.03;5057465;28;45503;-68
2022/01/02 04:36:40;;;;;;;;;19.25;16.25;;;;;11.07;76.01;100874.09;5056819;28;45387;-65
2022/01/02 04:39:05;;;;;;;;;18.00;16.75;;;;;11.05;76.19;100879.38;5057316;28;45355;-62
2022/01/02 04:41:31;;;;;;;;;18.75;15.50;;;;;11.05;76.10;100870.66;5057111;28;45477;-65
2022/01/02 04:43:56;;;;;;;;;16.75;15.00;;;;;11.04;75.96;100855.78;5056920;28;45376;-68
2022/01/02 04:46:21;;;;;;;;;17.50;15.25;;;;;11.08;75.91;100862.63;5056004;28;45410;-58
2022/01/02 04:48:47;;;;;;;;;17.00;15.25;;;;;11.10;75.83;100858.16;5057743;28;45375;-64
2022/01/02 04:51:12;;;;;;;;;18.00;15.50;;;;;10.92;75.55;100829.00;5061697;28;45358;-58
2022/01/02 04:53:46;;;;;;;;;20.00;16.50;;;;;11.07;75.84;100845.97;5062889;28;45369;-62
2022/01/02 04:56:11;;;;;;;;;17.50;15.00;;;;;11.10;75.73;100845.00;5059209;28;45398;-59
2022/01/02 04:58:36;;;;;;;;;21.00;18.50;;;;;11.13;75.62;100844.00;5059479;28;45511;-57
2022/01/02 05:01:02;;;;;;;;;17.75;15.00;;;;;11.10;75.09;100848.47;5059509;28;45640;-60
2022/01/02 05:03:27;;;;;;;;;15.25;15.25;;;;;11.11;75.42;100825.66;5059252;28;45356;-61
2022/01/02 05:05:52;;;;;;;;;19.25;16.75;;;;;11.16;75.74;100814.97;5059826;28;45429;-67
2022/01/02 05:08:18;;;;;;;;;14.50;14.50;;;;;11.16;75.57;100801.81;5059834;28;46101;-65
2022/01/02 05:10:43;;;;;;;;;18.25;15.25;;;;;11.19;75.50;100796.41;5060068;28;45446;-66
2022/01/02 05:13:08;;;;;;;;;18.75;16.50;;;;;11.19;75.56;100797.25;5042042;28;47451;-67
2022/01/02 05:15:34;;;;;;;;;14.50;12.00;;;;;11.16;75.35;100802.66;5059708;28;45317;-67
2022/01/02 05:17:59;;;;;;;;;17.75;15.00;;;;;11.17;75.02;100814.88;5060159;28;45395;-68
2022/01/02 05:20:24;;;;;;;;;16.50;15.50;;;;;11.16;75.38;100818.44;5060420;28;45479;-66
2022/01/02 05:22:50;;;;;;;;;16.25;15.25;;;;;11.17;75.00;100832.47;5040900;28;45524;-67
2022/01/02 05:25:15;;;;;;;;;17.75;15.00;;;;;11.14;74.80;100838.69;5058875;28;45337;-68
2022/01/02 05:27:40;;;;;;;;;17.75;17.25;;;;;11.16;74.58;100846.56;5059871;28;45231;-68
2022/01/02 05:30:06;;;;;;;;;19.00;15.75;;;;;11.15;74.92;100819.34;5059514;28;45174;-67
2022/01/02 05:32:31;;;;;;;;;20.00;17.50;;;;;11.17;75.21;100814.03;5059154;28;46733;-69
2022/01/02 05:34:57;;;;;;;;;19.25;17.00;;;;;11.11;75.09;100796.69;5059515;28;45283;-68
2022/01/02 05:37:22;;;;;;;;;21.50;17.50;;;;;11.16;74.62;100802.66;5061496;28;45290;-69
2022/01/02 05:39:47;;;;;;;;;18.00;16.25;;;;;11.22;74.65;100814.72;5060702;28;45605;-66
2022/01/02 05:42:13;;;;;;;;;18.25;15.50;;;;;11.22;74.89;100810.31;5060033;28;46125;-64
2022/01/02 05:44:38;;;;;;;;;17.00;15.50;;;;;11.24;74.92;100815.53;5059395;28;45336;-67
2022/01/02 05:47:04;;;;;;;;;17.25;13.75;;;;;11.25;74.54;100817.25;5058616;28;45233;-69
2022/01/02 05:49:29;;;;;;;;;14.25;14.00;;;;;11.27;74.24;100804.00;5058661;28;45311;-67
2022/01/02 05:51:54;;;;;;;;;20.00;13.50;;;;;11.31;74.49;100816.13;5059172;28;45538;-67
2022/01/02 05:54:20;;;;;;;;;15.50;13.75;;;;;11.32;74.16;100821.34;5059666;28;45351;-64
2022/01/02 05:56:45;;;;;;;;;16.50;14.75;;;;;11.34;73.78;100826.53;5059556;28;45328;-67
2022/01/02 05:59:12;;;;;;;;;16.50;14.75;;;;;11.36;73.64;100845.75;5060515;28;45332;-62
2022/01/02 06:01:37;;;;;;;;;19.50;14.25;;;;;11.37;73.50;100848.34;5057972;28;45764;-61
2022/01/02 06:04:02;;;;;;;;;14.75;13.75;;;;;11.37;73.63;100843.09;5059187;28;45764;-68
2022/01/02 06:06:28;;;;;;;;;12.50;12.00;;;;;11.42;73.57;100842.88;5061106;28;45424;-66
2022/01/02 06:08:53;;;;;;;;;15.25;12.50;;;;;11.43;73.34;100831.44;5060265;28;45526;-65
2022/01/02 06:11:18;;;;;;;;;10.25;10.25;;;;;11.44;72.88;100830.50;5059468;28;45480;-64
2022/01/02 06:13:44;;;;;;;;;12.25;12.25;;;;;11.46;73.20;100841.00;5059566;28;45375;-65
2022/01/02 06:16:13;;;;;;;;;13.25;13.00;;;;;11.46;72.75;100828.69;5042441;28;45367;-67
2022/01/02 06:18:38;;;;;;;;;13.25;12.00;;;;;11.46;72.75;100831.31;5061464;28;45240;-67
2022/01/02 06:21:04;;;;;;;;;15.25;14.75;;;;;11.45;72.82;100813.78;5059981;28;45569;-66
2022/01/02 06:23:29;;;;;;;;;12.25;12.25;;;;;11.46;72.61;100812.88;5061569;28;45282;-65
2022/01/02 06:25:54;;;;;;;;;14.00;11.00;;;;;11.48;73.15;100791.75;5026254;28;45274;-64
2022/01/02 06:28:20;;;;;;;;;13.25;12.00;;;;;11.50;72.41;100800.44;5061368;28;45518;-67
2022/01/02 06:30:45;;;;;;;;;11.75;10.25;;;;;11.51;73.00;100818.81;5061211;28;45375;-65
2022/01/02 06:33:10;;;;;;;;;12.75;12.50;;;;;11.55;72.55;100836.22;5060001;28;45398;-63
2022/01/02 06:35:36;;;;;;;;;12.00;9.75;;;;;11.53;72.42;100824.88;5060629;28;45378;-64
2022/01/02 06:38:19;;;;;;;;;12.00;10.50;;;;;11.57;72.55;100851.97;5060954;28;45568;-63
2022/01/02 06:40:45;;;;;;;;;14.50;12.50;;;;;11.58;72.46;100855.44;5058778;28;46813;-61
2022/01/02 06:43:10;;;;;;;;;16.75;12.75;;;;;11.60;72.51;100856.25;5059789;28;45367;-68
2022/01/02 06:45:36;;;;;;;;;13.00;10.00;;;;;11.59;72.60;100850.13;5061134;28;45366;-69
2022/01/02 06:48:03;;;;;;;;;9.25;8.00;;;;;11.60;72.10;100845.69;5060447;28;45505;-67
2022/01/02 06:50:29;;;;;;;;;11.25;9.50;;;;;11.52;72.39;100849.50;5057172;28;45463;-69
2022/01/02 06:52:54;;;;;;;;;13.25;12.00;;;;;11.58;72.28;100845.78;5058056;28;45430;-68
2022/01/02 06:55:20;;;;;;;;;17.50;11.50;;;;;11.58;72.41;100842.28;5059400;28;45353;-66
2022/01/02 06:57:45;;;;;;;;;13.50;10.00;;;;;11.61;72.34;100852.69;5060920;28;45502;-68
2022/01/02 07:00:11;;;;;;;;;10.00;9.00;;;;;11.60;72.34;100840.44;5060561;28;46299;-68
2022/01/02 07:02:36;;;;;;;;;11.50;10.75;;;;;11.52;72.07;100849.50;5058621;28;45400;-69
2022/01/02 07:05:02;;;;;;;;;12.75;12.75;;;;;11.50;72.03;100856.63;5039521;28;45423;-70
2022/01/02 07:07:28;;;;;;;;;10.75;9.25;;;;;11.44;72.54;100854.22;5060253;28;45577;-67
2022/01/02 07:09:53;;;;;;;;;13.25;9.25;;;;;11.38;72.75;100843.94;5061079;28;46390;-67
2022/01/02 07:12:18;;;;;;;;;13.00;11.00;;;;;11.31;72.99;100848.59;5059291;28;45233;-64
2022/01/02 07:14:44;;;;;;;;;13.00;10.75;;;;;11.25;73.42;100844.41;5057625;28;45288;-66
2022/01/02 07:17:09;;;;;;;;;10.50;10.50;;;;;11.22;73.59;100849.81;5039530;28;45185;-63
2022/01/02 07:19:34;;;;;;;;;15.25;11.75;;;;;11.21;73.70;100853.34;5057520;28;45404;-68
2022/01/02 07:22:00;;;;;;;;;12.25;10.25;;;;;11.22;73.66;100851.59;5057559;28;45335;-67
2022/01/02 07:24:26;;;;;;;;;14.00;13.00;;;;;11.25;73.86;100859.38;5058120;28;45462;-64
2022/01/02 07:26:52;;;;;;;;;11.25;10.25;;;;;11.14;73.72;100829.97;5058042;28;45574;-66
2022/01/02 07:29:19;;;;;;;;;12.00;8.50;;;;;11.41;73.72;100859.63;5057709;28;45858;-60
2022/01/02 07:31:44;;;;;;;;;13.00;10.25;;;;;11.49;73.97;100862.81;5060430;28;45268;-64
2022/01/02 07:34:10;;;;;;;;;12.00;6.00;;;;;11.57;73.69;100861.63;5057261;28;45384;-66
2022/01/02 07:36:38;;;;;;;;;12.00;10.00;;;;;11.63;73.55;100858.75;5056953;28;45244;-65
2022/01/02 07:39:03;;;;;;;;;13.75;12.00;;;;;11.68;73.41;100857.66;5056377;28;45707;-67
2022/01/02 07:41:28;;;;;;;;;14.00;10.25;;;;;11.74;73.60;100861.84;5056444;28;45342;-68
2022/01/02 07:43:54;;;;;;;;;13.00;10.00;;;;;11.81;73.52;100865.06;5057024;28;45254;-66
2022/01/02 07:46:20;;;;;;;;;10.50;8.00;;;;;11.76;73.38;100862.63;5064705;28;45153;-67
2022/01/02 07:48:45;;;;;;;;;12.00;10.50;;;;;11.80;73.66;100868.63;5061023;28;45459;-67
2022/01/02 07:51:10;;;;;;;;;9.25;9.00;;;;;11.77;73.60;100876.66;5057057;28;45331;-67
2022/01/02 07:53:36;;;;;;;;;13.25;12.25;;;;;11.74;73.68;100875.03;5056145;28;45425;-68
2022/01/02 07:56:01;;;;;;;;;12.75;11.50;;;;;11.72;73.93;100874.22;5056439;28;45326;-67
2022/01/02 07:58:27;;;;;;;;;14.75;12.00;;;;;11.69;74.13;100885.72;5058553;28;45451;-68
2022/01/02 08:00:52;;;;;;;;;12.25;10.25;;;;;11.66;74.27;100884.97;5055725;28;45322;-67
2022/01/02 08:03:17;;;;;;;;;13.50;13.00;;;;;11.64;74.37;100894.72;5056419;28;45387;-69
2022/01/02 08:05:43;;;;;;;;;18.00;12.50;;;;;11.61;74.47;100906.25;5056488;28;45373;-68
2022/01/02 08:08:08;;;;;;;;;15.50;13.75;;;;;11.59;74.63;100913.38;5055589;28;46013;-67
2022/01/02 08:10:34;;;;;;;;;12.75;12.50;;;;;11.58;74.86;100918.69;5055462;28;45377;-66
2022/01/02 08:12:59;;;;;;;;;14.50;13.75;;;;;11.52;75.24;100917.16;5055669;28;45937;-68
2022/01/02 08:15:24;;;;;;;;;13.25;10.75;;;;;11.55;75.24;100930.22;5056581;28;45332;-68
2022/01/02 08:17:50;;;;;;;;;16.25;11.25;;;;;11.52;75.24;100925.91;5056501;28;46454;-58
2022/01/02 08:20:15;;;;;;;;;11.75;11.00;;;;;11.51;76.01;100929.47;5055831;28;45294;-65
2022/01/02 08:22:40;;;;;;;;;11.75;11.00;;;;;11.51;76.40;100934.72;5055672;28;45325;-65
2022/01/02 08:25:06;;;;;;;;;11.75;11.50;;;;;11.49;76.48;100939.19;5059793;28;45166;-69
2022/01/02 08:27:32;;;;;;;;;14.25;10.75;;;;;11.48;76.45;100940.13;5059277;28;45292;-72
2022/01/02 08:29:57;;;;;;;;;12.25;10.75;;;;;11.50;76.97;100940.06;5059490;28;45240;-65
2022/01/02 08:32:23;;;;;;;;;14.00;12.25;;;;;11.50;76.69;100948.81;5059278;28;45373;-68
2022/01/02 08:34:48;;;;;;;;;15.50;13.75;;;;;11.50;77.19;100940.91;5059989;28;45221;-71
2022/01/02 08:37:16;;;;;;;;;16.75;16.50;;;;;11.52;76.93;100940.88;5064779;28;46022;-74
2022/01/02 08:39:43;;;;;;;;;15.50;12.50;;;;;11.51;77.46;100934.72;5063188;28;45352;-74
2022/01/02 08:42:09;;;;;;;;;13.25;13.00;;;;;11.49;77.15;100931.28;5042169;28;45403;-74
2022/01/02 08:44:36;;;;;;;;;16.00;10.00;;;;;11.51;77.38;100940.00;5061181;28;45316;-73
2022/01/02 08:47:01;;;;;;;;;13.50;11.50;;;;;11.52;77.90;100940.88;5060317;28;46450;-74
2022/01/02 08:49:27;;;;;;;;;13.00;12.25;;;;;11.50;77.85;100934.81;5059082;28;45310;-73
2022/01/02 08:51:54;;;;;;;;;12.75;10.50;;;;;11.55;77.88;100940.75;5040965;28;45287;-64
2022/01/02 08:54:19;;;;;;;;;13.00;12.00;;;;;11.55;77.78;100944.22;5059552;28;45592;-68
2022/01/02 08:56:44;;;;;;;;;15.00;10.25;;;;;11.54;77.93;100950.41;5058475;28;46076;-66
2022/01/02 08:59:10;;;;;;;;;13.50;11.50;;;;;11.54;77.90;100944.31;5058696;28;45244;-66
2022/01/02 09:01:35;;;;;;;;;15.00;13.00;;;;;11.57;78.32;100954.72;5058834;28;45524;-65
2022/01/02 09:04:00;;;;;;;;;15.00;12.00;;;;;11.54;78.85;100949.56;5058895;28;45334;-67
2022/01/02 09:06:26;;;;;;;;;14.75;12.75;;;;;11.59;78.56;100957.28;5058895;28;46173;-67
2022/01/02 09:08:51;;;;;;;;;6.50;5.00;;;;;11.60;78.65;100966.91;5059464;28;45351;-64
2022/01/02 09:11:17;;;;;;;;;16.00;14.75;;;;;11.59;79.04;100957.28;5058760;28;45307;-69
2022/01/02 09:13:42;;;;;;;;;11.75;11.75;;;;;11.61;79.02;100964.22;5058718;28;45307;-68
2022/01/02 09:16:08;;;;;;;;;14.25;13.50;;;;;11.60;78.89;100966.91;5059005;28;45837;-67
2022/01/02 09:18:33;;;;;;;;;13.75;11.75;;;;;11.63;79.11;100970.28;5057447;28;45538;-67
2022/01/02 09:21:00;;;;;;;;;16.00;12.00;;;;;11.65;78.91;100971.09;5058130;28;45591;-67
2022/01/02 09:23:25;;;;;;;;;12.00;9.75;;;;;11.68;79.01;100978.03;5040990;28;45332;-63
2022/01/02 09:25:50;;;;;;;;;11.25;9.50;;;;;11.69;79.37;100971.84;5058805;28;45257;-68
2022/01/02 09:28:15;;;;;;;;;10.00;10.00;;;;;11.72;79.04;100978.75;5058709;28;45583;-64
2022/01/02 09:30:41;;;;;;;;;14.75;13.50;;;;;11.72;79.59;100984.91;5063617;28;45167;-70
2022/01/02 09:33:08;;;;;;;;;12.25;11.75;;;;;11.69;79.09;100970.06;5059049;28;45225;-70
2022/01/02 09:35:36;;;;;;;;;17.00;12.50;;;;;11.75;80.74;100987.41;5056596;28;47087;-74
2022/01/02 09:38:01;;;;;;;;;13.75;11.25;;;;;11.82;80.16;100996.81;5057016;28;46636;-70
2022/01/02 09:40:28;;;;;;;;;12.00;10.25;;;;;11.89;79.72;100988.66;5059117;28;45371;-70
2022/01/02 09:42:56;;;;;;;;;15.25;13.00;;;;;11.90;79.80;100995.66;5057937;28;45378;-71
2022/01/02 09:45:21;;;;;;;;;14.75;12.75;;;;;11.91;79.37;100984.19;5058676;28;47046;-68
2022/01/02 09:47:48;;;;;;;;;12.75;10.50;;;;;11.92;79.27;100983.25;5057460;28;45327;-67
2022/01/02 09:50:13;;;;;;;;;14.00;11.00;;;;;11.89;79.23;100968.41;5057972;28;45392;-74
2022/01/02 09:52:39;;;;;;;;;14.50;12.50;;;;;11.94;79.71;100978.78;5058063;28;45475;-71
2022/01/02 09:55:04;;;;;;;;;13.00;12.00;;;;;11.97;79.29;100982.16;5057727;28;46442;-71
2022/01/02 09:57:30;;;;;;;;;11.50;10.50;;;;;12.00;79.14;100981.22;5058558;28;45201;-72
2022/01/02 09:59:56;;;;;;;;;15.00;13.75;;;;;12.01;79.08;100974.16;5060553;28;45388;-71
2022/01/02 10:02:22;;;;;;;;;13.50;10.00;;;;;12.05;79.13;100979.25;5059514;28;45360;-70
2022/01/02 10:04:47;;;;;;;;;17.00;13.25;;;;;12.06;79.19;100980.09;5060086;28;45314;-71
2022/01/02 10:07:31;;;;;;;;;15.50;9.25;;;;;12.12;79.15;100986.00;5041578;28;45362;-70
2022/01/02 10:09:57;;;;;;;;;13.50;10.50;;;;;12.15;78.64;100989.44;5058647;28;45489;-67
2022/01/02 10:12:31;;;;;;;;;10.75;10.00;;;;;12.18;78.83;100995.41;5058765;28;45412;-62
2022/01/02 10:15:09;;;;;;;;;9.75;8.50;;;;;12.19;78.42;100991.03;5059767;28;45814;-65
2022/01/02 10:17:51;;;;;;;;;12.00;9.75;;;;;12.21;78.23;100986.53;5059124;28;45326;-68
2022/01/02 10:20:17;;;;;;;;;12.50;11.75;;;;;12.25;78.23;100990.78;5057695;28;45344;-72
2022/01/02 10:23:13;;;;;;;;;10.00;9.00;;;;;12.29;78.58;100986.25;5057648;28;45315;-72
2022/01/02 10:25:46;;;;;;;;;12.25;8.25;;;;;12.36;78.24;100992.97;5057717;28;45924;-72
2022/01/02 10:28:28;;;;;;;;;9.00;8.00;;;;;12.39;78.09;100996.34;5039993;28;45433;-71
2022/01/02 10:31:15;;;;;;;;;10.00;9.25;;;;;12.45;78.29;100997.00;5058344;28;45328;-74
2022/01/02 10:33:59;;;;;;;;;7.50;7.25;;;;;12.57;77.57;100993.84;5058247;28;45445;-71
2022/01/02 10:36:31;;;;;;;;;9.75;9.00;;;;;12.69;77.69;100988.06;5058278;28;46081;-71
2022/01/02 10:39:15;;;;;;;;;9.75;9.00;;;;;12.86;77.09;101002.34;5058501;28;45193;-70
2022/01/02 10:41:45;;;;;;;;;9.00;7.50;;;;;12.99;76.36;100990.31;5057659;28;45430;-70
2022/01/02 10:44:20;;;;;;;;;13.50;7.75;;;;;13.19;75.59;101009.69;5058543;28;45443;-69
2022/01/02 10:47:09;;;;;;;;;7.25;5.00;;;;;13.35;75.41;101007.25;5058081;28;45246;-71
2022/01/02 10:49:58;;;;;;;;;6.25;5.00;;;;;13.52;74.85;100995.91;5056814;28;45315;-72
2022/01/02 10:52:37;;;;;;;;;7.25;6.50;;;;;13.66;74.46;100991.78;5057891;28;45335;-63
2022/01/02 10:55:12;;;;;;;;;7.25;6.00;;;;;13.73;73.87;100991.44;5057502;28;45494;-65
2022/01/02 10:57:42;;;;;;;;;8.50;5.75;;;;;13.82;73.62;100995.44;5057204;28;46169;-59
2022/01/02 11:00:08;;;;;;;;;7.75;5.75;;;;;13.90;73.32;100999.50;5056717;28;45339;-59
2022/01/02 11:02:34;;;;;;;;;7.50;6.75;;;;;13.97;73.13;100993.00;5040910;28;45269;-69
2022/01/02 11:05:07;;;;;;;;;8.25;7.00;;;;;14.03;73.16;100998.00;5057744;28;45287;-69
2022/01/02 11:07:55;;;;;;;;;6.25;5.75;;;;;14.08;73.20;100995.09;5056526;28;45338;-69
2022/01/02 11:10:23;;;;;;;;;6.50;5.00;;;;;14.14;72.40;101006.25;5038442;28;45396;-68
2022/01/02 11:12:50;;;;;;;;;5.25;5.25;;;;;14.16;72.25;101004.41;5056982;28;45525;-72
2022/01/02 11:15:18;;;;;;;;;7.75;6.00;;;;;14.21;71.79;100990.09;5056159;28;45278;-71
2022/01/02 11:17:44;;;;;;;;;7.50;6.00;;;;;14.24;72.18;100996.06;5057049;28;45489;-66
2022/01/02 11:20:12;;;;;;;;;7.00;6.75;;;;;14.28;72.09;100999.44;5056905;28;45232;-69
2022/01/02 11:23:15;;;;;;;;;8.00;6.00;;;;;14.31;71.81;100999.28;5057186;28;45374;-73